UK Observations

EGUN 231111Z AUTO 21009KT 9999 SCT011 BKN020 BKN030 OVC040 14/14 A3002 RMK AO2 CIG 020V030 SLP169 $ EGUW 231113Z 24009KT 7000 -DZ SCT008 BKN015 BKN045 13/11 Q1017 GRN TEMPO 2500 DZ SCT005 YLO1 EGVP 231111Z 22007KT 9999 FEW006 BKN007 15/14 Q1017 GRN TEMPO 5000 -DZ BKN006 YLO1 EGWC 231112Z 17007KT 9999 FEW008 SCT020 13/12 Q1015 GRN EGAA 231050Z 22013KT 9999 FEW033 14/12 Q1010 EGAC 231050Z 21012KT 9999 FEW015 SCT018 15/13 Q1009 EGAE 231050Z 21013KT 9999 FEW015 15/11 Q1008 EGBB 231050Z 17005KT 9999 BKN010 14/13 Q1015 EGBJ 231050Z 23008KT 9999 -RA FEW009 BKN012 16/14 Q1015 EGCC 231050Z AUTO 18006KT 120V230 9999 OVC012 13/12 Q1014 NOSIG EGDM 231050Z 22009KT 9999 BKN006 OVC012 15/14 Q1016 YLO1 BECMG BKN012 GRN EGDR 231050Z 23013KT 0200 FG BKN000 OVC001 14/14 Q1017 RED NOSIG EGDY 231050Z AUTO 21007KT 9999 BKN014/// 16/14 Q1016 EGFF 231050Z 27008KT 5000 VCSH SCT006 BKN009 OVC014 15/15 Q1016 EGGD 231050Z AUTO 22009KT 9999 OVC007 15/14 Q1016 EGGP 231050Z 17010KT 9999 FEW012 BKN032 15/13 Q1013 EGGW 231050Z AUTO 20008KT 150V220 9999 OVC004 13/12 Q1017 EGHE 231050Z 25013KT 3000 -DZ BR BKN001 15/15 Q1017 EGHH 231050Z 24011KT 3000 -DZRA BR BKN005 BKN012 15/15 Q1017 EGHI 231050Z 22007KT 190V250 9999 -DZ FEW006 BKN008 14/13 Q1017 EGJA 231050Z 23016KT 1400 R26/P1200 RADZ BR OVC000 15/// Q1019 EGJB 231050Z 23018KT 7000 -DZ FEW001 SCT002 BKN003 15/14 Q1019 EGJJ 231050Z 22016KT 6000 -RADZ SCT003 BKN004 14/14 Q1020 EGKA 231050Z 23014KT 3500 -RADZ BKN004 14/14 Q1018 EGKB 231050Z 20013KT 7000 2500S -DZ BKN005 14/13 Q1018 EGKK 231050Z 21006KT 7000 -RA BKN006 14/14 Q1018 EGLC 231050Z AUTO 23009G20KT 170V260 9999 BKN012 OVC023 15/12 Q1017 EGLF 231050Z 20008KT 6000 -DZ SCT007 BKN011 14/14 Q1017 EGLL 231050Z AUTO 20010KT 170V250 9999 BKN007 14/13 Q1017 TEMPO 4000 -RADZ EGMC 231050Z 21009KT 9000 FEW006 BKN017 13/10 Q1018 EGMD 231050Z 23013KT 9999 SCT006 SCT009 BKN029 15/14 Q1019 EGNC 231050Z 17007KT 110V220 9999 FEW018 BKN024 12/11 Q1011 EGNH 231050Z 13013KT 9999 FEW014 SCT022 13/12 Q1012 EGNJ 231050Z 19009KT 8000 -RA SCT018 BKN024 12/11 Q1015 EGNM 231050Z VRB04KT 9999 FEW004 BKN008 11/10 Q1014 EGNS 231050Z 22011KT 9999 -RA FEW008 SCT015 14/14 Q1011 NOSIG EGNT 231050Z 17005KT 100V200 9999 FEW020 BKN045 12/09 Q1012 EGNV 231050Z 19013KT 9999 FEW015 12/10 Q1013 EGNX 231050Z 19011KT 9999 SCT009 BKN040 13/11 Q1015 EGOS 231050Z 16009KT 9999 FEW009 SCT060 15/12 Q1014 BLU NOSIG EGOV 231050Z 21014KT 9999 FEW003 BKN004 OVC005 14/14 Q1012 YLO2 BECMG SCT010 GRN EGPA 231050Z 17020KT 4500 -RA FEW007 BKN020 11/10 Q1006 EGPB 231050Z 15025G36KT 9000 -DZ SCT011 BKN016 11/10 Q1009 TEMPO BKN011 EGPC 231050Z 15018KT 9000 SCT006 11/10 Q1005 EGPD 231050Z 17019KT 9000 -RA BKN008 BKN025 11/10 Q1009 TEMPO BKN010 EGPE 231050Z VRB01KT 9999 VCSH FEW020 SCT033 12/10 Q1006 EGPF 231050Z AUTO 21011KT 9999 OVC011 14/13 Q1009 EGPH 231050Z 21013KT 9999 VCSH FEW018 BKN032 15/11 Q1009 EGPK 231050Z 22010KT 8000 -DZ SCT010 BKN020 15/13 Q1010 EGPL 231050Z 20018KT 9999 SCT010 SCT025 13/11 Q1004 EGPM 231050Z 15023KT 9999 VCSH FEW010 BKN018 11/09 Q1008 TEMPO BKN014 EGPN 231050Z 10004KT 8000 SCT010 BKN020 12/11 Q1009 EGPO 231050Z 20017KT 9999 FEW018 14/11 Q1003 EGPU 231050Z 22015KT 9000 -RA SCT017 BKN034 13/11 Q1005 EGQK 231050Z AUTO 20010KT 9999 FEW041/// BKN060/// 14/09 Q1005 EGQL 231050Z 17010KT 9999 FEW012 BKN020 13/11 Q1009 WHT EGQM 231050Z AUTO 16012KT 9999 -RADZ FEW022/// BKN048/// 12/10 Q1012 EGQS 231050Z 19008KT 9999 FEW025 SCT040 13/10 Q1006 BLU NOSIG EGSC 231050Z 20009KT 9999 FEW008 BKN019 14/12 Q1017 EGSH 231050Z 23006KT 190V250 9999 BKN037 13/11 Q1017 BECMG BKN012 EGSS 231050Z AUTO 20008KT 9999 OVC007 13/12 Q1017 EGTC 231050Z 21011KT 9999 BKN010 15/13 Q1016 EGTE 231050Z 20008KT 9999 FEW010 BKN015 16/14 Q1016 EGUB 231050Z 18008KT 9999 -DZ BKN005 14/13 Q1016 YLO1 TEMPO SCT007 GRN EGUL 231056Z 21009KT 9999 FEW013 SCT038 14/14 A3001 RMK AO2A SLP166 T01380138 $ EGUN 231056Z AUTO 20009KT 9999 FEW010 SCT019 SCT028 OVC040 14/14 A3001 RMK AO2 SLP166 T01400140 $ EGUN 231056Z AUTO 20009KT 9999 FEW010 SCT019 SCT028 OVC040 14/14 A3001 RMK AO2 SLP166 T01400140 . EGVA 231056Z AUTO 22008KT 9999 OVC011 15/14 A3000 RMK AO2 CIG 010 RWY09 SLP163 T01520136 $ EGVN 231050Z 20006KT 9999 BKN008 BKN018 15/13 Q1016 GRN NOSIG EGVN 231050Z 20006KT 9999 BKN008 BKN018 15/13 Q1016 NOSIG EGWU 231050Z 21006KT 9999 BKN007 14/13 Q1017 TEMPO 7000 -DZ EGWU 231050Z 21006KT 9999 BKN007 14/13 Q1017 GRN TEMPO 7000 -DZ GRN EGXC 231050Z 19009KT 9999 SCT010 OVC028 13/11 Q1016 GRN NOSIG EGXT 231050Z 20010KT 9999 BKN009 BKN050 13/12 Q1015 GRN EGYD 231050Z 18008KT 8000 -RA SCT010 BKN050 BKN090 13/11 Q1015 GRN NOSIG GBYD 231100Z VRB03KT CAVOK 32/24 Q1012 KGNC 231055Z AUTO 00000KT 10SM CLR 07/02 A3015 RMK AO2 T00650015 EGCN 231050Z 17006KT 9999 FEW005 SCT009 13/12 Q1015 EGDX 231050Z 26008KT 5000 BR SCT004 BKN010 15/15 Q1015 YLO2 EGEC 231050Z 18007KT 9999 BKN032 14/13 Q1008 EGEO 231050Z 21012KT 9999 FEW012 SCT028 14/12 Q1007 EGHQ 231050Z 23015KT 0400 R30/0650 -RADZ FG BKN002 14/13 Q1017 EGNO 231050Z 15008KT 9999 FEW018 SCT024 13/12 Q1012 EGNR 231050Z 16012KT 9999 SCT036 16/13 Q1013 EGOM 231050Z 19010KT 9999 -RA BKN011 12/11 Q1011 GRN EGOP 231050Z 23014KT 2000 RA OVC003 15/15 Q1015 YLO2 EGOW 231050Z 15010KT 9999 FEW018 SCT030 14/12 Q1013 BLU EGPI 231050Z 19012KT 9999 FEW006 SCT009 14/12 Q1007 EGQA 231050Z 13006KT 9999 FEW022 SCT034 11/// Q1006 BLU EGUW 231050Z 24009KT 9999 SCT012 BKN047 BKN090 13/10 Q1017 GRN NOSIG EGVO 231050Z 21009KT 7000 -DZ BKN006 BKN010 14/14 Q1017 YLO1 TEMPO BKN007 GRN EGVP 231050Z 22007KT 9999 BKN006 15/14 Q1017 YLO1 BECMG BKN007 GRN EGWC 231050Z 18009KT 9999 SCT008 SCT020 13/12 Q1015 GRN EGXE 231050Z 15009KT 9999 FEW006 BKN013 BKN044 11/10 Q1013 GRN TEMPO 3000 -RADZ BKN006 YLO1 EGXP 231050Z 19008KT 9999 BKN007 BKN028 BKN050 12/11 Q1015 GRN EGXS 231050Z AUTO 19008KT 9999 // SCT029/// SCT042/// BKN080/// 13/10 Q1015 EGXU 231050Z 17008KT 9999 FEW007 OVC028 12/10 Q1014 BLU BECMG BKN010 GRN EGXV 231050Z AUTO 20008KT 9999 FEW022/// BKN029/// BKN060/// 12/10 Q1014 EGXW 231050Z 18008KT 9999 -RADZ SCT008 BKN045 12/11 Q1015 GRN TEMPO 5000 -RADZ GRN EGXZ 231050Z 14010KT 9999 FEW015 BKN021 BKN044 11/11 Q1014 WHT EGYH 231050Z 22014KT 9999 FEW020 BKN040 13/11 Q1016 BLU EGYM 231050Z 20009KT 9999 FEW012 SCT035 BKN100 14/11 Q1016 BLU BECMG SCT010 GRN EGTK 231050Z 19007KT 9999 BKN008 OVC010 14/13 Q1016